sensor_id;sensor_type;location;lat;lon;timestamp;temperature;humidity
4699;DHT22;33708;49.466;11.176;2023-06-10T00:01:48;13.70;1.00
4699;DHT22;33708;49.466;11.176;2023-06-10T00:04:14;13.60;1.00
4699;DHT22;33708;49.466;11.176;2023-06-10T00:06:41;13.50;1.00
4699;DHT22;33708;49.466;11.176;2023-06-10T00:09:07;13.40;1.00
4699;DHT22;33708;49.466;11.176;2023-06-10T00:11:36;13.50;1.00
4699;DHT22;33708;49.466;11.176;2023-06-10T00:14:02;13.40;1.00
4699;DHT22;33708;49.466;11.176;2023-06-10T00:16:28;13.30;1.00
4699;DHT22;33708;49.466;11.176;2023-06-10T00:18:54;13.30;1.00
4699;DHT22;33708;49.466;11.176;2023-06-10T00:21:30;13.30;1.00
4699;DHT22;33708;49.466;11.176;2023-06-10T00:23:56;13.30;1.00
4699;DHT22;33708;49.466;11.176;2023-06-10T00:26:24;13.30;1.00
4699;DHT22;33708;49.466;11.176;2023-06-10T00:28:51;13.30;1.00
4699;DHT22;33708;49.466;11.176;2023-06-10T00:31:17;13.30;1.00
4699;DHT22;33708;49.466;11.176;2023-06-10T00:33:43;13.30;1.00
4699;DHT22;33708;49.466;11.176;2023-06-10T00:36:09;13.30;1.00
4699;DHT22;33708;49.466;11.176;2023-06-10T00:38:34;13.20;1.00
4699;DHT22;33708;49.466;11.176;2023-06-10T00:41:00;13.30;1.00
4699;DHT22;33708;49.466;11.176;2023-06-10T00:43:26;13.30;1.00
4699;DHT22;33708;49.466;11.176;2023-06-10T00:45:51;13.40;1.00
4699;DHT22;33708;49.466;11.176;2023-06-10T00:48:18;13.40;1.00
4699;DHT22;33708;49.466;11.176;2023-06-10T00:50:44;13.30;1.00
4699;DHT22;33708;49.466;11.176;2023-06-10T00:53:10;13.30;1.00
4699;DHT22;33708;49.466;11.176;2023-06-10T00:55:37;13.20;1.00
4699;DHT22;33708;49.466;11.176;2023-06-10T00:58:03;13.30;1.00
4699;DHT22;33708;49.466;11.176;2023-06-10T01:00:29;13.20;1.00
4699;DHT22;33708;49.466;11.176;2023-06-10T01:02:55;13.20;1.00
4699;DHT22;33708;49.466;11.176;2023-06-10T01:05:21;13.30;1.00
4699;DHT22;33708;49.466;11.176;2023-06-10T01:08:15;13.20;1.00
4699;DHT22;33708;49.466;11.176;2023-06-10T01:10:51;13.20;1.00
4699;DHT22;33708;49.466;11.176;2023-06-10T01:13:18;13.10;1.00
4699;DHT22;33708;49.466;11.176;2023-06-10T01:15:45;12.90;1.00
4699;DHT22;33708;49.466;11.176;2023-06-10T01:18:11;12.90;1.00
4699;DHT22;33708;49.466;11.176;2023-06-10T01:20:43;12.90;1.00
4699;DHT22;33708;49.466;11.176;2023-06-10T01:23:10;13.00;1.00
4699;DHT22;33708;49.466;11.176;2023-06-10T01:25:41;13.00;1.00
4699;DHT22;33708;49.466;11.176;2023-06-10T01:28:22;13.00;1.00
4699;DHT22;33708;49.466;11.176;2023-06-10T01:33:29;12.70;1.00
4699;DHT22;33708;49.466;11.176;2023-06-10T01:35:58;12.60;1.00
4699;DHT22;33708;49.466;11.176;2023-06-10T01:38:28;12.60;1.00
4699;DHT22;33708;49.466;11.176;2023-06-10T01:40:56;12.60;1.00
4699;DHT22;33708;49.466;11.176;2023-06-10T01:43:23;12.50;1.00
4699;DHT22;33708;49.466;11.176;2023-06-10T01:45:48;12.60;1.00
4699;DHT22;33708;49.466;11.176;2023-06-10T01:48:14;12.60;1.00
4699;DHT22;33708;49.466;11.176;2023-06-10T01:50:39;12.60;1.00
4699;DHT22;33708;49.466;11.176;2023-06-10T01:53:05;12.50;1.00
4699;DHT22;33708;49.466;11.176;2023-06-10T01:55:31;12.50;1.00
4699;DHT22;33708;49.466;11.176;2023-06-10T01:57:57;12.50;1.00
4699;DHT22;33708;49.466;11.176;2023-06-10T02:00:22;12.50;1.00
4699;DHT22;33708;49.466;11.176;2023-06-10T02:02:48;12.40;1.00
4699;DHT22;33708;49.466;11.176;2023-06-10T02:05:13;12.40;1.00
4699;DHT22;33708;49.466;11.176;2023-06-10T02:07:39;12.40;1.00
4699;DHT22;33708;49.466;11.176;2023-06-10T02:10:05;12.50;1.00
4699;DHT22;33708;49.466;11.176;2023-06-10T02:12:31;12.40;1.00
4699;DHT22;33708;49.466;11.176;2023-06-10T02:14:57;12.30;1.00
4699;DHT22;33708;49.466;11.176;2023-06-10T02:17:22;12.20;1.00
4699;DHT22;33708;49.466;11.176;2023-06-10T02:19:48;12.30;1.00
4699;DHT22;33708;49.466;11.176;2023-06-10T02:22:20;12.30;1.00
4699;DHT22;33708;49.466;11.176;2023-06-10T02:24:46;12.20;1.00
4699;DHT22;33708;49.466;11.176;2023-06-10T02:27:11;12.20;1.00
4699;DHT22;33708;49.466;11.176;2023-06-10T02:29:37;12.30;1.00
4699;DHT22;33708;49.466;11.176;2023-06-10T02:32:03;12.30;1.00
4699;DHT22;33708;49.466;11.176;2023-06-10T02:34:34;12.30;1.00
4699;DHT22;33708;49.466;11.176;2023-06-10T02:37:10;12.30;1.00
4699;DHT22;33708;49.466;11.176;2023-06-10T02:39:42;12.30;1.00
4699;DHT22;33708;49.466;11.176;2023-06-10T02:42:11;12.30;1.00
4699;DHT22;33708;49.466;11.176;2023-06-10T02:44:41;12.30;1.00
4699;DHT22;33708;49.466;11.176;2023-06-10T02:47:07;12.30;1.00
4699;DHT22;33708;49.466;11.176;2023-06-10T02:49:32;12.40;1.00
4699;DHT22;33708;49.466;11.176;2023-06-10T02:51:58;12.40;1.00
4699;DHT22;33708;49.466;11.176;2023-06-10T02:54:24;12.50;1.00
4699;DHT22;33708;49.466;11.176;2023-06-10T02:56:51;12.60;1.00
4699;DHT22;33708;49.466;11.176;2023-06-10T02:59:17;12.70;1.00
4699;DHT22;33708;49.466;11.176;2023-06-10T03:01:42;12.70;1.00
4699;DHT22;33708;49.466;11.176;2023-06-10T03:04:08;12.80;1.00
4699;DHT22;33708;49.466;11.176;2023-06-10T03:06:34;12.80;1.00
4699;DHT22;33708;49.466;11.176;2023-06-10T03:09:01;12.80;1.00
4699;DHT22;33708;49.466;11.176;2023-06-10T03:11:26;12.90;1.00
4699;DHT22;33708;49.466;11.176;2023-06-10T03:13:52;13.00;1.00
4699;DHT22;33708;49.466;11.176;2023-06-10T03:16:21;13.00;1.00
4699;DHT22;33708;49.466;11.176;2023-06-10T03:18:46;13.00;1.00
4699;DHT22;33708;49.466;11.176;2023-06-10T03:21:12;12.90;1.00
4699;DHT22;33708;49.466;11.176;2023-06-10T03:23:37;12.90;1.00
4699;DHT22;33708;49.466;11.176;2023-06-10T03:26:04;13.10;1.00
4699;DHT22;33708;49.466;11.176;2023-06-10T03:28:30;13.20;1.00
4699;DHT22;33708;49.466;11.176;2023-06-10T03:30:56;13.30;1.00
4699;DHT22;33708;49.466;11.176;2023-06-10T03:33:22;13.80;1.00
4699;DHT22;33708;49.466;11.176;2023-06-10T03:35:48;14.40;1.00
4699;DHT22;33708;49.466;11.176;2023-06-10T03:38:13;14.70;1.00
4699;DHT22;33708;49.466;11.176;2023-06-10T03:40:39;14.90;1.00
4699;DHT22;33708;49.466;11.176;2023-06-10T03:43:05;15.20;1.00
4699;DHT22;33708;49.466;11.176;2023-06-10T03:45:31;15.80;1.00
4699;DHT22;33708;49.466;11.176;2023-06-10T03:47:57;16.30;1.00
4699;DHT22;33708;49.466;11.176;2023-06-10T03:50:23;16.70;1.00
4699;DHT22;33708;49.466;11.176;2023-06-10T03:52:50;17.20;1.00
4699;DHT22;33708;49.466;11.176;2023-06-10T03:55:16;17.50;1.00
4699;DHT22;33708;49.466;11.176;2023-06-10T03:57:42;18.10;1.00
4699;DHT22;33708;49.466;11.176;2023-06-10T04:00:08;18.40;1.00
4699;DHT22;33708;49.466;11.176;2023-06-10T04:02:38;19.20;1.00
4699;DHT22;33708;49.466;11.176;2023-06-10T04:05:17;19.60;1.00
4699;DHT22;33708;49.466;11.176;2023-06-10T04:07:43;19.80;1.00
4699;DHT22;33708;49.466;11.176;2023-06-10T04:10:10;21.20;1.00
4699;DHT22;33708;49.466;11.176;2023-06-10T04:12:36;21.90;1.00
4699;DHT22;33708;49.466;11.176;2023-06-10T04:15:04;21.90;1.00
4699;DHT22;33708;49.466;11.176;2023-06-10T04:17:29;21.90;1.00
4699;DHT22;33708;49.466;11.176;2023-06-10T04:19:55;21.70;1.00
4699;DHT22;33708;49.466;11.176;2023-06-10T04:22:21;22.10;1.00
4699;DHT22;33708;49.466;11.176;2023-06-10T04:24:48;22.40;1.00
4699;DHT22;33708;49.466;11.176;2023-06-10T04:27:13;24.00;1.00
4699;DHT22;33708;49.466;11.176;2023-06-10T04:29:39;25.10;1.00
4699;DHT22;33708;49.466;11.176;2023-06-10T04:32:05;26.50;1.00
4699;DHT22;33708;49.466;11.176;2023-06-10T04:34:33;26.90;1.00
4699;DHT22;33708;49.466;11.176;2023-06-10T04:36:59;27.10;1.00
4699;DHT22;33708;49.466;11.176;2023-06-10T04:39:24;28.10;1.00
4699;DHT22;33708;49.466;11.176;2023-06-10T04:41:50;28.30;1.00
4699;DHT22;33708;49.466;11.176;2023-06-10T04:44:15;28.50;1.00
4699;DHT22;33708;49.466;11.176;2023-06-10T04:46:41;28.90;1.00
4699;DHT22;33708;49.466;11.176;2023-06-10T04:49:07;29.40;1.00
4699;DHT22;33708;49.466;11.176;2023-06-10T04:51:32;29.80;1.00
4699;DHT22;33708;49.466;11.176;2023-06-10T04:53:58;30.30;1.00
4699;DHT22;33708;49.466;11.176;2023-06-10T04:56:27;30.60;1.00
4699;DHT22;33708;49.466;11.176;2023-06-10T04:58:54;31.00;1.00
4699;DHT22;33708;49.466;11.176;2023-06-10T05:01:19;30.80;1.00
4699;DHT22;33708;49.466;11.176;2023-06-10T05:03:45;31.20;1.00
4699;DHT22;33708;49.466;11.176;2023-06-10T05:06:10;31.30;1.00
4699;DHT22;33708;49.466;11.176;2023-06-10T05:08:36;32.40;1.00
4699;DHT22;33708;49.466;11.176;2023-06-10T05:11:02;32.40;1.00
4699;DHT22;33708;49.466;11.176;2023-06-10T05:13:27;32.90;1.00
4699;DHT22;33708;49.466;11.176;2023-06-10T05:15:53;32.30;1.00
4699;DHT22;33708;49.466;11.176;2023-06-10T05:18:18;30.70;1.00
4699;DHT22;33708;49.466;11.176;2023-06-10T05:20:44;31.20;1.00
4699;DHT22;33708;49.466;11.176;2023-06-10T05:23:09;32.70;1.00
4699;DHT22;33708;49.466;11.176;2023-06-10T05:25:35;34.30;1.00
4699;DHT22;33708;49.466;11.176;2023-06-10T05:28:01;34.00;1.00
4699;DHT22;33708;49.466;11.176;2023-06-10T05:30:27;31.70;1.00
4699;DHT22;33708;49.466;11.176;2023-06-10T05:32:53;33.00;1.00
4699;DHT22;33708;49.466;11.176;2023-06-10T05:35:19;32.70;1.00
4699;DHT22;33708;49.466;11.176;2023-06-10T05:37:44;33.40;1.00
4699;DHT22;33708;49.466;11.176;2023-06-10T05:40:11;33.50;1.00
4699;DHT22;33708;49.466;11.176;2023-06-10T05:42:36;34.70;1.00
4699;DHT22;33708;49.466;11.176;2023-06-10T05:45:02;33.70;1.00
4699;DHT22;33708;49.466;11.176;2023-06-10T05:47:28;35.70;1.00
4699;DHT22;33708;49.466;11.176;2023-06-10T05:49:54;34.90;1.00
4699;DHT22;33708;49.466;11.176;2023-06-10T05:52:20;34.50;1.00
4699;DHT22;33708;49.466;11.176;2023-06-10T05:54:45;34.00;1.00
4699;DHT22;33708;49.466;11.176;2023-06-10T05:57:11;34.20;1.00
4699;DHT22;33708;49.466;11.176;2023-06-10T05:59:37;34.30;1.00
4699;DHT22;33708;49.466;11.176;2023-06-10T06:02:02;33.50;1.00
4699;DHT22;33708;49.466;11.176;2023-06-10T06:04:28;33.80;1.00
4699;DHT22;33708;49.466;11.176;2023-06-10T06:06:54;34.70;1.00
4699;DHT22;33708;49.466;11.176;2023-06-10T06:09:19;33.30;1.00
4699;DHT22;33708;49.466;11.176;2023-06-10T06:11:45;33.40;1.00
4699;DHT22;33708;49.466;11.176;2023-06-10T06:14:11;34.00;1.00
4699;DHT22;33708;49.466;11.176;2023-06-10T06:16:36;33.40;1.00
4699;DHT22;33708;49.466;11.176;2023-06-10T06:19:02;34.10;1.00
4699;DHT22;33708;49.466;11.176;2023-06-10T06:21:27;34.40;1.00
4699;DHT22;33708;49.466;11.176;2023-06-10T06:23:53;34.80;1.00
4699;DHT22;33708;49.466;11.176;2023-06-10T06:26:19;36.50;1.00
4699;DHT22;33708;49.466;11.176;2023-06-10T06:28:44;36.50;1.00
4699;DHT22;33708;49.466;11.176;2023-06-10T06:31:10;38.40;1.00
4699;DHT22;33708;49.466;11.176;2023-06-10T06:33:35;35.90;1.00
4699;DHT22;33708;49.466;11.176;2023-06-10T06:36:01;38.40;1.00
4699;DHT22;33708;49.466;11.176;2023-06-10T06:38:27;39.30;1.00
4699;DHT22;33708;49.466;11.176;2023-06-10T06:40:53;37.40;1.00
4699;DHT22;33708;49.466;11.176;2023-06-10T06:43:19;37.10;1.00
4699;DHT22;33708;49.466;11.176;2023-06-10T06:45:45;36.10;1.00
4699;DHT22;33708;49.466;11.176;2023-06-10T06:48:12;37.20;1.00
4699;DHT22;33708;49.466;11.176;2023-06-10T06:50:38;35.10;1.00
4699;DHT22;33708;49.466;11.176;2023-06-10T06:53:04;35.40;1.00
4699;DHT22;33708;49.466;11.176;2023-06-10T06:55:29;35.40;1.00
4699;DHT22;33708;49.466;11.176;2023-06-10T06:57:55;35.60;1.00
4699;DHT22;33708;49.466;11.176;2023-06-10T07:00:21;36.80;1.00
4699;DHT22;33708;49.466;11.176;2023-06-10T07:02:47;35.40;1.00
4699;DHT22;33708;49.466;11.176;2023-06-10T07:05:13;36.60;1.00
4699;DHT22;33708;49.466;11.176;2023-06-10T07:07:38;35.00;1.00
4699;DHT22;33708;49.466;11.176;2023-06-10T07:10:04;35.90;1.00
4699;DHT22;33708;49.466;11.176;2023-06-10T07:12:30;36.60;1.00
4699;DHT22;33708;49.466;11.176;2023-06-10T07:14:56;38.40;1.00
4699;DHT22;33708;49.466;11.176;2023-06-10T07:17:21;37.80;1.00
4699;DHT22;33708;49.466;11.176;2023-06-10T07:19:47;38.00;1.00
4699;DHT22;33708;49.466;11.176;2023-06-10T07:22:13;37.60;1.00
4699;DHT22;33708;49.466;11.176;2023-06-10T07:24:39;37.90;1.00
4699;DHT22;33708;49.466;11.176;2023-06-10T07:27:05;36.80;1.00
4699;DHT22;33708;49.466;11.176;2023-06-10T07:29:31;36.80;1.00
4699;DHT22;33708;49.466;11.176;2023-06-10T07:31:56;37.90;1.00
4699;DHT22;33708;49.466;11.176;2023-06-10T07:34:22;39.00;1.00
4699;DHT22;33708;49.466;11.176;2023-06-10T07:36:48;37.90;1.00
4699;DHT22;33708;49.466;11.176;2023-06-10T07:39:13;37.20;1.00
4699;DHT22;33708;49.466;11.176;2023-06-10T07:41:39;39.10;1.00
4699;DHT22;33708;49.466;11.176;2023-06-10T07:44:04;40.20;1.00
4699;DHT22;33708;49.466;11.176;2023-06-10T07:46:30;39.80;1.00
4699;DHT22;33708;49.466;11.176;2023-06-10T07:48:56;41.00;1.00
4699;DHT22;33708;49.466;11.176;2023-06-10T07:53:47;37.80;1.00
4699;DHT22;33708;49.466;11.176;2023-06-10T07:56:13;38.30;1.00
4699;DHT22;33708;49.466;11.176;2023-06-10T07:58:39;34.30;1.00
4699;DHT22;33708;49.466;11.176;2023-06-10T08:01:04;35.50;1.00
4699;DHT22;33708;49.466;11.176;2023-06-10T08:03:30;35.90;1.00
4699;DHT22;33708;49.466;11.176;2023-06-10T08:05:56;36.20;1.00
4699;DHT22;33708;49.466;11.176;2023-06-10T08:08:21;38.00;1.00
4699;DHT22;33708;49.466;11.176;2023-06-10T08:10:47;37.50;1.00
4699;DHT22;33708;49.466;11.176;2023-06-10T08:13:13;35.80;1.00
4699;DHT22;33708;49.466;11.176;2023-06-10T08:15:39;35.70;1.00
4699;DHT22;33708;49.466;11.176;2023-06-10T08:18:04;34.80;1.00
4699;DHT22;33708;49.466;11.176;2023-06-10T08:20:30;35.90;1.00
4699;DHT22;33708;49.466;11.176;2023-06-10T08:22:55;34.60;1.00
4699;DHT22;33708;49.466;11.176;2023-06-10T08:25:21;33.50;1.00
4699;DHT22;33708;49.466;11.176;2023-06-10T08:27:47;33.30;1.00
4699;DHT22;33708;49.466;11.176;2023-06-10T08:30:13;33.70;1.00
4699;DHT22;33708;49.466;11.176;2023-06-10T08:32:39;33.00;1.00
4699;DHT22;33708;49.466;11.176;2023-06-10T08:35:05;31.70;1.00
4699;DHT22;33708;49.466;11.176;2023-06-10T08:37:31;32.50;1.00
4699;DHT22;33708;49.466;11.176;2023-06-10T08:39:56;31.90;1.00
4699;DHT22;33708;49.466;11.176;2023-06-10T08:42:39;32.10;1.00
4699;DHT22;33708;49.466;11.176;2023-06-10T08:45:07;32.70;1.00
4699;DHT22;33708;49.466;11.176;2023-06-10T08:47:35;33.30;1.00
4699;DHT22;33708;49.466;11.176;2023-06-10T08:50:03;31.70;1.00
4699;DHT22;33708;49.466;11.176;2023-06-10T08:52:37;33.30;1.00
4699;DHT22;33708;49.466;11.176;2023-06-10T08:55:14;34.00;1.00
4699;DHT22;33708;49.466;11.176;2023-06-10T08:57:41;33.70;1.00
4699;DHT22;33708;49.466;11.176;2023-06-10T09:00:07;30.50;1.00
4699;DHT22;33708;49.466;11.176;2023-06-10T09:02:33;31.10;1.00
4699;DHT22;33708;49.466;11.176;2023-06-10T09:05:01;30.20;1.00
4699;DHT22;33708;49.466;11.176;2023-06-10T09:07:28;32.80;1.00
4699;DHT22;33708;49.466;11.176;2023-06-10T09:09:57;32.80;1.00
4699;DHT22;33708;49.466;11.176;2023-06-10T09:12:24;33.60;1.00
4699;DHT22;33708;49.466;11.176;2023-06-10T09:14:50;31.70;1.00
4699;DHT22;33708;49.466;11.176;2023-06-10T09:17:16;32.70;1.00
4699;DHT22;33708;49.466;11.176;2023-06-10T09:19:52;30.60;1.00
4699;DHT22;33708;49.466;11.176;2023-06-10T09:22:19;29.40;1.00
4699;DHT22;33708;49.466;11.176;2023-06-10T09:24:46;31.00;1.00
4699;DHT22;33708;49.466;11.176;2023-06-10T09:27:12;33.40;1.00
4699;DHT22;33708;49.466;11.176;2023-06-10T09:29:47;34.40;1.00
4699;DHT22;33708;49.466;11.176;2023-06-10T09:32:13;34.70;1.00
4699;DHT22;33708;49.466;11.176;2023-06-10T09:34:39;35.50;1.00
4699;DHT22;33708;49.466;11.176;2023-06-10T09:37:06;31.70;1.00
4699;DHT22;33708;49.466;11.176;2023-06-10T09:39:32;30.50;1.00
4699;DHT22;33708;49.466;11.176;2023-06-10T09:41:57;30.00;1.00
4699;DHT22;33708;49.466;11.176;2023-06-10T09:44:23;30.50;1.00
4699;DHT22;33708;49.466;11.176;2023-06-10T09:46:50;29.60;1.00
4699;DHT22;33708;49.466;11.176;2023-06-10T09:49:17;32.00;1.00
4699;DHT22;33708;49.466;11.176;2023-06-10T09:51:53;30.30;1.00
4699;DHT22;33708;49.466;11.176;2023-06-10T09:54:20;30.10;1.40
4699;DHT22;33708;49.466;11.176;2023-06-10T09:56:48;29.30;90.40
4699;DHT22;33708;49.466;11.176;2023-06-10T09:59:14;28.50;1.00
4699;DHT22;33708;49.466;11.176;2023-06-10T10:01:39;27.90;1.00
4699;DHT22;33708;49.466;11.176;2023-06-10T10:04:05;28.90;99.90
4699;DHT22;33708;49.466;11.176;2023-06-10T10:06:31;28.90;99.90
4699;DHT22;33708;49.466;11.176;2023-06-10T10:08:57;28.80;1.00
4699;DHT22;33708;49.466;11.176;2023-06-10T10:11:23;28.70;1.00
4699;DHT22;33708;49.466;11.176;2023-06-10T10:13:51;28.80;1.00
4699;DHT22;33708;49.466;11.176;2023-06-10T10:16:30;28.40;1.00
4699;DHT22;33708;49.466;11.176;2023-06-10T10:19:08;27.80;99.90
4699;DHT22;33708;49.466;11.176;2023-06-10T10:21:39;26.50;1.00
4699;DHT22;33708;49.466;11.176;2023-06-10T10:24:20;27.50;1.00
4699;DHT22;33708;49.466;11.176;2023-06-10T10:26:48;27.80;1.00
4699;DHT22;33708;49.466;11.176;2023-06-10T10:29:47;28.00;1.00
4699;DHT22;33708;49.466;11.176;2023-06-10T10:32:14;27.70;1.00
4699;DHT22;33708;49.466;11.176;2023-06-10T10:34:49;27.70;1.00
4699;DHT22;33708;49.466;11.176;2023-06-10T10:37:19;28.50;1.00
4699;DHT22;33708;49.466;11.176;2023-06-10T10:39:45;28.50;1.00
4699;DHT22;33708;49.466;11.176;2023-06-10T10:42:11;27.30;1.00
4699;DHT22;33708;49.466;11.176;2023-06-10T10:44:38;27.40;1.00
4699;DHT22;33708;49.466;11.176;2023-06-10T10:47:05;26.80;1.00
4699;DHT22;33708;49.466;11.176;2023-06-10T10:49:35;26.50;1.00
4699;DHT22;33708;49.466;11.176;2023-06-10T10:52:01;26.80;1.00
4699;DHT22;33708;49.466;11.176;2023-06-10T10:54:32;26.90;1.00
4699;DHT22;33708;49.466;11.176;2023-06-10T10:57:18;27.80;1.00
4699;DHT22;33708;49.466;11.176;2023-06-10T10:59:53;28.40;1.00
4699;DHT22;33708;49.466;11.176;2023-06-10T11:02:58;27.70;1.00
4699;DHT22;33708;49.466;11.176;2023-06-10T11:05:48;27.00;1.00
4699;DHT22;33708;49.466;11.176;2023-06-10T11:08:15;27.70;1.00
4699;DHT22;33708;49.466;11.176;2023-06-10T11:10:53;27.40;1.00
4699;DHT22;33708;49.466;11.176;2023-06-10T11:13:20;28.30;1.00
4699;DHT22;33708;49.466;11.176;2023-06-10T11:15:50;27.80;1.00
4699;DHT22;33708;49.466;11.176;2023-06-10T11:18:29;27.70;1.00
4699;DHT22;33708;49.466;11.176;2023-06-10T11:20:58;27.90;1.00
4699;DHT22;33708;49.466;11.176;2023-06-10T11:23:38;27.40;1.00
4699;DHT22;33708;49.466;11.176;2023-06-10T11:31:40;27.70;1.00
4699;DHT22;33708;49.466;11.176;2023-06-10T11:34:07;28.90;1.00
4699;DHT22;33708;49.466;11.176;2023-06-10T11:36:38;28.00;1.00
4699;DHT22;33708;49.466;11.176;2023-06-10T11:39:09;28.30;1.00
4699;DHT22;33708;49.466;11.176;2023-06-10T11:41:39;28.10;1.00
4699;DHT22;33708;49.466;11.176;2023-06-10T11:44:09;28.40;1.00
4699;DHT22;33708;49.466;11.176;2023-06-10T11:46:35;28.10;1.00
4699;DHT22;33708;49.466;11.176;2023-06-10T11:49:02;28.50;1.00
4699;DHT22;33708;49.466;11.176;2023-06-10T11:51:32;28.10;1.00
4699;DHT22;33708;49.466;11.176;2023-06-10T11:53:57;27.70;1.00
4699;DHT22;33708;49.466;11.176;2023-06-10T11:56:25;27.80;1.00
4699;DHT22;33708;49.466;11.176;2023-06-10T12:01:26;27.30;1.00
4699;DHT22;33708;49.466;11.176;2023-06-10T12:04:14;27.30;1.00
4699;DHT22;33708;49.466;11.176;2023-06-10T12:06:45;27.40;1.00
4699;DHT22;33708;49.466;11.176;2023-06-10T12:09:21;28.20;1.00
4699;DHT22;33708;49.466;11.176;2023-06-10T12:11:57;27.70;1.00
4699;DHT22;33708;49.466;11.176;2023-06-10T12:14:50;28.40;1.00
4699;DHT22;33708;49.466;11.176;2023-06-10T12:17:17;28.60;1.00
4699;DHT22;33708;49.466;11.176;2023-06-10T12:19:42;28.50;1.00
4699;DHT22;33708;49.466;11.176;2023-06-10T12:22:08;28.70;1.00
4699;DHT22;33708;49.466;11.176;2023-06-10T12:24:56;28.50;1.00
4699;DHT22;33708;49.466;11.176;2023-06-10T12:27:22;28.30;1.00
4699;DHT22;33708;49.466;11.176;2023-06-10T12:29:52;29.40;1.00
4699;DHT22;33708;49.466;11.176;2023-06-10T12:32:19;29.50;1.00
4699;DHT22;33708;49.466;11.176;2023-06-10T12:34:48;30.00;1.00
4699;DHT22;33708;49.466;11.176;2023-06-10T12:37:14;30.20;1.00
4699;DHT22;33708;49.466;11.176;2023-06-10T12:39:40;30.30;1.00
4699;DHT22;33708;49.466;11.176;2023-06-10T12:42:08;29.70;1.00
4699;DHT22;33708;49.466;11.176;2023-06-10T12:44:38;29.40;1.00
4699;DHT22;33708;49.466;11.176;2023-06-10T12:47:11;28.80;1.00
4699;DHT22;33708;49.466;11.176;2023-06-10T12:49:39;27.90;1.00
4699;DHT22;33708;49.466;11.176;2023-06-10T12:52:06;28.30;1.00
4699;DHT22;33708;49.466;11.176;2023-06-10T12:54:32;28.10;1.00
4699;DHT22;33708;49.466;11.176;2023-06-10T12:56:58;28.00;1.00
4699;DHT22;33708;49.466;11.176;2023-06-10T12:59:24;27.90;1.00
4699;DHT22;33708;49.466;11.176;2023-06-10T13:01:53;27.70;1.00
4699;DHT22;33708;49.466;11.176;2023-06-10T13:04:19;29.00;1.00
4699;DHT22;33708;49.466;11.176;2023-06-10T13:06:46;29.00;1.00
4699;DHT22;33708;49.466;11.176;2023-06-10T13:09:12;29.60;1.00
4699;DHT22;33708;49.466;11.176;2023-06-10T13:11:38;29.90;1.00
4699;DHT22;33708;49.466;11.176;2023-06-10T13:14:04;30.70;1.00
4699;DHT22;33708;49.466;11.176;2023-06-10T13:16:32;30.50;1.00
4699;DHT22;33708;49.466;11.176;2023-06-10T13:18:57;31.50;1.00
4699;DHT22;33708;49.466;11.176;2023-06-10T13:21:23;30.50;1.00
4699;DHT22;33708;49.466;11.176;2023-06-10T13:23:49;30.90;1.00
4699;DHT22;33708;49.466;11.176;2023-06-10T13:26:15;30.80;1.00
4699;DHT22;33708;49.466;11.176;2023-06-10T13:28:44;30.00;1.00
4699;DHT22;33708;49.466;11.176;2023-06-10T13:31:10;29.80;1.00
4699;DHT22;33708;49.466;11.176;2023-06-10T13:33:36;29.50;1.00
4699;DHT22;33708;49.466;11.176;2023-06-10T13:36:01;29.00;1.00
4699;DHT22;33708;49.466;11.176;2023-06-10T13:38:27;28.30;1.00
4699;DHT22;33708;49.466;11.176;2023-06-10T13:40:53;29.60;1.00
4699;DHT22;33708;49.466;11.176;2023-06-10T13:43:18;30.10;1.00
4699;DHT22;33708;49.466;11.176;2023-06-10T13:45:47;29.20;1.00
4699;DHT22;33708;49.466;11.176;2023-06-10T13:48:12;28.90;1.00
4699;DHT22;33708;49.466;11.176;2023-06-10T13:50:38;29.10;1.00
4699;DHT22;33708;49.466;11.176;2023-06-10T13:53:04;29.20;1.00
4699;DHT22;33708;49.466;11.176;2023-06-10T13:55:29;29.50;1.00
4699;DHT22;33708;49.466;11.176;2023-06-10T13:57:55;29.10;1.00
4699;DHT22;33708;49.466;11.176;2023-06-10T14:00:20;29.10;1.00
4699;DHT22;33708;49.466;11.176;2023-06-10T14:02:46;28.90;1.00
4699;DHT22;33708;49.466;11.176;2023-06-10T14:05:12;28.40;1.00
4699;DHT22;33708;49.466;11.176;2023-06-10T14:07:37;27.70;1.00
4699;DHT22;33708;49.466;11.176;2023-06-10T14:10:03;27.50;1.00
4699;DHT22;33708;49.466;11.176;2023-06-10T14:12:29;27.50;1.00
4699;DHT22;33708;49.466;11.176;2023-06-10T14:14:55;27.70;1.00
4699;DHT22;33708;49.466;11.176;2023-06-10T14:17:20;27.40;1.00
4699;DHT22;33708;49.466;11.176;2023-06-10T14:19:47;28.20;1.00
4699;DHT22;33708;49.466;11.176;2023-06-10T14:22:13;29.20;1.00
4699;DHT22;33708;49.466;11.176;2023-06-10T14:24:39;29.30;1.00
4699;DHT22;33708;49.466;11.176;2023-06-10T14:27:04;28.90;1.00
4699;DHT22;33708;49.466;11.176;2023-06-10T14:29:31;28.70;1.00
4699;DHT22;33708;49.466;11.176;2023-06-10T14:31:59;27.90;1.00
4699;DHT22;33708;49.466;11.176;2023-06-10T14:34:24;27.70;1.00
4699;DHT22;33708;49.466;11.176;2023-06-10T14:36:54;27.50;1.00
4699;DHT22;33708;49.466;11.176;2023-06-10T14:39:20;27.50;1.00
4699;DHT22;33708;49.466;11.176;2023-06-10T14:41:46;27.60;1.00
4699;DHT22;33708;49.466;11.176;2023-06-10T14:44:11;27.80;1.00
4699;DHT22;33708;49.466;11.176;2023-06-10T14:46:37;28.10;1.00
4699;DHT22;33708;49.466;11.176;2023-06-10T14:49:02;28.70;1.00
4699;DHT22;33708;49.466;11.176;2023-06-10T14:51:28;28.60;1.00
4699;DHT22;33708;49.466;11.176;2023-06-10T14:53:53;29.00;1.00
4699;DHT22;33708;49.466;11.176;2023-06-10T14:56:19;29.40;1.00
4699;DHT22;33708;49.466;11.176;2023-06-10T14:58:45;29.00;1.00
4699;DHT22;33708;49.466;11.176;2023-06-10T15:01:10;28.80;1.00
4699;DHT22;33708;49.466;11.176;2023-06-10T15:03:36;28.00;1.00
4699;DHT22;33708;49.466;11.176;2023-06-10T15:06:01;28.10;1.00
4699;DHT22;33708;49.466;11.176;2023-06-10T15:08:27;28.60;1.00
4699;DHT22;33708;49.466;11.176;2023-06-10T15:10:55;28.30;1.00
4699;DHT22;33708;49.466;11.176;2023-06-10T15:13:23;28.20;1.00
4699;DHT22;33708;49.466;11.176;2023-06-10T15:15:49;28.40;1.00
4699;DHT22;33708;49.466;11.176;2023-06-10T15:18:15;28.00;1.00
4699;DHT22;33708;49.466;11.176;2023-06-10T15:20:40;27.60;1.00
4699;DHT22;33708;49.466;11.176;2023-06-10T15:23:06;27.70;1.00
4699;DHT22;33708;49.466;11.176;2023-06-10T15:25:33;27.40;1.00
4699;DHT22;33708;49.466;11.176;2023-06-10T15:27:59;27.20;1.00
4699;DHT22;33708;49.466;11.176;2023-06-10T15:30:24;26.80;1.00
4699;DHT22;33708;49.466;11.176;2023-06-10T15:32:50;26.90;1.00
4699;DHT22;33708;49.466;11.176;2023-06-10T15:35:16;27.20;1.00
4699;DHT22;33708;49.466;11.176;2023-06-10T15:37:41;27.70;1.00
4699;DHT22;33708;49.466;11.176;2023-06-10T15:40:07;27.80;1.00
4699;DHT22;33708;49.466;11.176;2023-06-10T15:42:33;27.80;1.00
4699;DHT22;33708;49.466;11.176;2023-06-10T15:44:58;28.00;1.00
4699;DHT22;33708;49.466;11.176;2023-06-10T15:47:24;28.00;1.00
4699;DHT22;33708;49.466;11.176;2023-06-10T15:49:50;27.90;1.00
4699;DHT22;33708;49.466;11.176;2023-06-10T15:52:18;28.00;1.00
4699;DHT22;33708;49.466;11.176;2023-06-10T15:54:44;28.30;1.00
4699;DHT22;33708;49.466;11.176;2023-06-10T15:57:10;28.60;1.00
4699;DHT22;33708;49.466;11.176;2023-06-10T15:59:35;28.40;1.00